SMRA60 UAOL 152100
AAXX 15211
60060 32/// /0309 10206 20175 40177 8////=
60101 32460 52705 10208 20162 40176 53007 85800 333 82816 83620=
60107 32558 62402 10238 20219 40164 51012 83230 333 83826 84380 95320=
60115 32570 33308 10237 20165 40154 52015 81130 333 81823 83360=
60135 32558 63004 10220 20154 40179 53012 85530 333 85624 84360=
60141 32579 52806 10232 20153 39517 40174 52016 85030 333 85360=
60150 32960 33006 10206 20162 39539 40173 53015 83030 333 83360=
60156 45460 53407 10211 20173 40188 53014 84530 333 84616=
60210 31581 61703 10295 20129 39012 48552 52008 71311 83930 333 83830 81933 83358=
60220 32/// /0109 10188 20174 40183 8////=
60230 45960 23507 10265 20133 40156 53023 82080 333 82360=
60252 45960 01910 10203 20163 40157 53024=
60265 32660 40807 10257 20160 38923 48566 52028 84300 333 84840 81950=
60318 32660 10901 10225 20185 40162 53011 81200 333 81840=
60340 32565 40406 10242 20177 40166 53018 81530 333 81630 84360=
60729 46/// ///// 1//// 2//// 3//// 4//// 5//// 333 91000 91100=
60731 25960 03207 10254 20163 30146 40153 51016 333 59001 60007 91010 91110=
60732 26/// /3003 10225 20170 39584 40167 51013 333 58000 60007 91005 91117=
60739 26/// ///04 10238 20180 39374 40155 51019 333 58001 60007 91008 91118=
60767 32958 01012 10271 20221 39999 40136 51014=
64570 42558 82206 10234 20212 39647 40144 885// 333 58010 88630=
64810 41457 82410 10235 20228 30129 40159 8592/ 333 58016 85612 81920 88462 94941 95811=
65660 42460 72005 10260 20248 40153 52018 71322 87900 333 86615 81924 95971 95924=
67002 42580 11309 10230 20200 30168 40211 81100 333 59006 81820 924//=
67310 46/// /0203 10222 20156 4//// 5////=
67329 46/// /3612 10246 20239 40170 333 58004=
68155 46/// /1102 10177 20029 39245 48563 52010 333 10314 20177=
68163 46/// /0902 10142 21005 39090 48570 53007 333 10319 20132 91003=
68172 46/// /1104 10207 20031 39396 48571 52007 333 10322 20204 91005=
68179 46/// /1406 10180 20039 39165 48588 53005 333 10305 20180 91008=
68183 46/// /2805 10172 20092 39492 48566 52006 333 10305 20172 91006=
68187 46/// /2202 10167 20077 39677 48575 53002 333 10308 20162 91004=
68188 46/// /3602 10156 20088 39265 48577 52007 333 10291 20149 91005=
68189 46/// /0109 10206 20047 39070 48583 52005 333 10276 20204 91013=
68196 46/// /0000 10213 20096 39663 48582 52006 333 10315 20213 91002=
68237 46/// /2203 10179 21022 38953 48569 52010 333 10316 20177 91004=
68241 46/// /0000 10170 21015 39051 48565 53008 333 10317 20166 91002=
68248 46/// /2103 1//// 2//// 39030 4//// 53007 333 1//// 2//// 91005=
68249 46/// /0000 10131 20012 38833 48568 53007 333 10290 20128 91006=
68255 46/// /2202 10143 20041 38918 48556 53003 333 10298 20143 91004=
68257 46/// /3104 10179 21002 38985 48561 53007 333 10307 20174 91006=
68258 46/// /0000 10132 20056 38906 48563 53006 333 10293 20132 91011=
68260 46/// /0000 10161 20003 38695 48572 53563 333 10273 20160 91012=
68266 46/// /0000 1//// 2//// 38831 4//// 52006 333 1//// 2//// 91003=
68267 46/// /3607 10130 20014 3//// 4//// 5//// 333 10249 20129 91007 555=
68269 46/// /3503 10187 20026 38627 48565 52005 333 10288 20186 91004=
68271 46/// /3404 10198 20059 38980 48581 52010 333 10306 20188 91009=
68274 46/// /0000 10101 20027 38690 48577 52007 333 10255 20101 91002=
68283 46/// /2702 10126 20066 38954 48581 52007 333 10272 20126 91004=
68285 46/// /0603 10095 20009 38204 48590 53005 333 10233 20094 91004=
68287 46/// /3106 10153 20066 38634 48568 52005 333 10242 20151 91012=
68289 46/// /2505 10164 20091 39210 48570 52005 333 10271 20164 91006=
68291 46/// /2904 10221 20087 39605 48592 52010 333 10308 20220 91005=
68297 46/// /0000 10182 20104 39969 48578 52006 333 10320 20182 91003=
68329 46/// ///// 10110 21111 39150 48557 52008 333 10294 20109=
68331 46/// /1508 10098 21109 38877 48547 52008 333 10277 20098 91010=
68333 46/// /1703 10085 21076 38739 48552 52015 333 10279 20085 91004=
68335 46/// /1802 10134 21037 38953 48553 52012 333 10305 20133 91004=
68341 46/// /0206 10158 20008 38588 48584 52006 333 10283 20142 91008=
68343 46/// ///// 10062 21031 38841 48548 52012 333 10259 20058=
68345 46/// /2305 10137 20017 38712 48551 52010 333 10273 20120 91007=
68347 46/// ///// 10165 21005 38734 48560 52006 333 10294 20164=
68348 46/// /2203 10174 20015 38804 48567 53001 333 10297 20165 91013=
68349 46/// /3210 10158 20000 38559 48552 52005 333 10267 20152 91014=
68353 46/// ///// 10143 20019 38571 48551 51008 333 10270 20135=
68355 46/// /0108 10163 21003 38618 48557 52005 333 10281 20163 91010=
68361 46/// /0000 10130 20020 38443 48567 52006 333 10266 20130 91002=
68371 46/// /3505 10128 21007 38441 48598 53003 333 10272 20125 91009=
68375 46/// /0703 10123 20007 38396 48571 52008 333 10263 20122 91004=
68382 46/// /1305 10201 20062 39394 48571 53006 333 1//// 20197 91008 555 91021=
68387 46/// /2002 10160 20114 38906 48560 53010 333 10316 20160 91005=
68392 46/// /3611 10197 20088 38971 48567 52010 333 10289 20185 91014 555 91023=
68397 46/// /2104 10200 20185 30100 40196 52022 333 10310 20197 91010=
68403 46/// /2903 10109 20086 30201 40230 51008 333 10167 20109 91004=
68411 46/// /1905 10158 20033 30007 48591 52011 333 10252 20158 91006=
68429 46/// /0803 10091 21089 38740 48552 52012 333 10295 20085 91005=
68439 46/// /1706 10111 21130 38937 48542 53001 333 10241 20110 91007=
68443 46/// /2302 10107 21044 38643 48544 51006 333 10254 20106 91003=
68447 46/// /0903 10114 21042 38760 48549 52010 333 10270 20108 91005=
68449 46/// /2902 10130 20044 38430 48558 51007 333 10241 20126 91004=
68471 46/// /0306 10139 21008 38369 48552 53007 333 10261 20134 91011=
68474 46/// /2810 10207 20026 38676 48568 52027 333 10266 20125 91026=
68479 46/// /1209 10151 20113 38998 48553 53011 333 10300 20151 91013=
68481 46/// /1511 10194 20129 39819 40190 52020 333 10275 20192 91016=
68485 46/// /1407 10125 20115 38678 48566 52012 333 10262 20123 91012=
68487 46/// /1703 10147 20124 39060 48571 52015 333 10286 20145 91005=
68490 46/// /2205 10195 20169 30113 48602 53013 333 10288 20188 91014=
68491 46/// /2105 10191 20161 30181 40190 52011 333 10267 20188 91010=
68492 46/// /2006 10212 20188 30145 48611 52012 333 10293 20210 91016=
68493 46/// /2002 10161 20132 39602 48573 52014 333 10305 20161 91005=
68494 46/// /2104 10182 20139 30082 40216 52012 333 10262 20182 91013=
68495 46/// /2211 10204 20176 30159 40201 52016 333 10277 20201 91018=
68513 46/// /1007 10092 20076 30122 40238 56002 333 10177 20089 91008=
68516 46/// /0000 10086 20053 39943 48567 58006 333 10205 20086 91002=
68523 46/// /2306 10095 21021 39166 48553 52011 333 10205 20071 91010=
68527 46/// /2806 10143 21128 39132 48558 52007 333 10250 20127 91009=
68541 46/// /1903 10077 21116 38681 48560 53006 333 10235 20076 91006=
68543 46/// /1305 10089 21026 38786 48546 53008 333 10226 20063 91008=
68549 46/// ///// 1//// 2//// 38654 4//// 53003 333 1//// 2////=
68553 46/// /1703 10050 20007 38263 48564 52002 333 10197 20050 91005=
68558 46/// /1404 10047 21006 38237 48563 53002 333 10212 20036 91010=
68573 46/// /1707 10133 20118 38932 48572 53008 333 10202 20133 91011=
68575 46/// /1604 10131 20120 39167 48576 52012 333 10187 20130 91006=
68577 46/// /1502 10096 20091 38631 48577 53011 333 10179 20096 91004=
68579 46/// /2211 10146 20128 39642 48586 53010 333 10192 20146 91017=
68581 46/// /2103 10154 20132 39448 48579 53010 333 10240 20152 91006=
68582 46/// /1807 10153 20136 39391 48574 52015 333 10239 20152 91010=
68583 46/// /2106 10192 20151 30104 40215 53008 333 10255 20190 91017=
68585 46/// /2406 10176 20152 30200 40217 52010 333 10217 20171 91010=
68587 46/// /2410 10167 20128 30206 40222 52012 333 10173 20163 91017=
68589 46/// /0505 10098 20072 38304 48566 53006 333 10262 20096 91009=
68591 46/// /1912 10167 20132 30048 40229 53008 333 10174 20160 91018=
68592 46/// /2210 10187 20154 30094 40219 53011 333 10217 20181 91014=
68593 46/// /2307 10194 20147 30198 40214 53011 333 10224 20194 91022=
68613 46/// /1705 10081 20068 30113 40229 56004 333 10171 20081 91006=
68619 46/// /2802 10027 20013 39385 48525 57002 333 10181 20027 91003=
68633 46/// /1409 10072 21002 38559 48551 55000 333 10195 20068 91014=
68647 46/// /1104 10083 20045 38985 48568 51002 333 10215 20075 91006=
68649 46/// /3110 10050 20023 38457 48573 52010 333 10195 20049 91015=
68651 46/// /1206 10082 20081 38617 48576 52005 333 10168 20082 91009=
68677 46/// /2707 10143 20080 30136 40243 52008 333 10190 20143 91013=
68695 46/// /0000 10062 20054 30204 48565 52010 333 10184 20054 91005=
68710 46/// /0802 10044 20025 30217 48550 56000 333 10206 20039 91003=
68711 46/// /0000 10089 20029 30108 40231 56003 333 10198 20089 91002=
68713 46/// /2802 10086 20058 30115 48576 53005 333 10189 20086 91003=
68715 46/// /0000 10049 20035 30117 48554 52011 333 10192 20045 91002=
68716 46/// /0000 10071 20055 30025 48564 52007 333 10189 20067 91002=
68717 46/// /0502 10032 20023 30078 48533 55000 333 10177 20027 91003=
68719 46/// /0802 10027 21005 39140 48550 54000 333 10159 20027 91003=
68723 46/// /0000 10066 21038 39466 48551 52002 333 10183 20066 91000=
68727 46/// /3204 10091 21027 39190 48551 52011 333 10172 20090 91005=
68737 46/// /0502 10044 20010 39317 48547 53005 333 10165 20044 91003=
68747 46/// /2002 10084 20053 39709 48571 51001 333 10160 20084 91004=
68809 46/// /2506 10078 20065 30091 48566 53002 333 10178 20066 91007=
68810 46/// /0902 10070 20051 30028 48563 53005 333 10197 20070 91003=
68811 46/// /1703 10036 20028 30243 40251 52007 333 10178 20035 91003=
68812 46/// /3004 10078 20057 30056 48571 53003 333 10171 20065 91007=
68813 46/// ///// 10143 2//// 30236 40238 53003 333 10202 20120=
68815 46/// /1502 10055 20033 39694 48553 51002 333 10184 20055 91003=
68817 46/// /2502 10119 20072 30231 40244 53005 333 10200 20118 91005=
68819 46/// /2204 10129 20069 30125 48598 53002 333 10178 20120 91010=
68820 46/// /0000 10099 20073 30233 48593 53005 333 10197 20099 91002=
68821 46/// /1404 10062 20035 39984 48550 58002 333 10186 20062 91004=
68822 46/// /0000 10051 20046 39960 48559 53003 333 10195 20049 91002=
68823 46/// /1004 10074 20003 39401 48375 52056 333 10189 20031 91006=
68825 46/// /0000 10073 20018 39594 48549 58002 333 10175 20073 91002=
68827 46/// /0103 10079 20027 39841 48558 57008 333 10185 20073 91005=
68829 46/// /0000 10070 20062 39909 40231 58006 333 10169 20070 91011=
68833 46/// /3303 10068 20055 39567 48557 51005 333 10175 20061 91004=
68835 46/// /0000 10094 20066 30137 40254 53005 333 10182 20094 91002=
68837 46/// /3106 10086 20060 30186 40244 53001 333 10196 20086 91008=
68839 46/// /0102 10065 20046 30057 48566 52001 333 10189 20063 91004=
68840 46/// /0804 10058 20031 39644 48562 52001 333 10168 20058 91005=
68841 46/// /0804 10091 20075 30078 48583 55000 333 10201 20089 91006=
68843 46/// /3005 10084 20070 30143 40246 51001 333 10173 20083 91006=
68844 46/// /2802 10101 20075 30176 40249 54000 333 10190 20101 91004=
68846 46/// /2604 10102 20065 30231 48598 53001 333 10195 20101 91005=
68848 46/// /3303 10129 20084 30226 48605 50000 333 10199 20129 91005=
68849 46/// /0000 10069 20056 39494 48562 50000 333 10127 20065 91002=
68911 46/// /0303 10092 20068 30234 40242 53003 333 10169 20089 91004=
68912 46/// /2505 10141 20087 30228 40237 52005 333 10171 20121 91007=
68918 46/// /3203 10111 20079 30216 40233 55000 333 10180 20104 91004=
68921 46/// /2703 10068 20046 30220 40224 51005 333 10170 20067 91005=
68922 46/// /0000 10071 20045 30058 48566 53000 333 10177 20071 91002=
68923 46/// /2402 10051 20034 30050 48554 51002 333 10190 20050 91002=
68924 46/// /0603 10041 20024 30207 48542 51003 333 10199 20038 91004=
68925 46/// /0000 10052 20038 39888 48555 53007 333 10173 20052 91002=
68927 46/// /3204 10091 20060 30102 40228 58006 333 10187 20077 91006=
68931 46/// /0306 10105 20092 30073 40241 58006 333 10159 20105 91007=
68933 46/// /0606 10106 20087 30229 40237 51001 333 10170 20106 91010=
68935 46/// /0000 10087 20068 30161 40227 58005 333 10173 20084 91002=
68939 46/// /3102 10112 2//// 30238 40249 53002 333 10182 20111 91004=



SMUS60 KWBC 152100
AAXX 15214
60005 26/// /0217 10226 20190 30165 40202 51008 333 60007=
60025 22970 00616 10228 20188 30108 40197 53013 80000 333 60007=
60030 22570 33620 10226 20174 30141 40196 51010 835// 333 60007=
60040 22480 40120 10220 20174 30170 40195 53010 84500 333 60007=
60096 32556 20224 10225 20183 40147 51013 82500 333 82620=
60338 22365 52702 10247 20206 30103 40166 53015 81650 333 60007 81708 85364=
60351 42565 31402 10243 20213 40171 53007 83200 333 83820 95990=
60360 42560 32503 10242 20177 40156 51010 83800 333 82826 95990=
60369 42960 00412 10263 20223 40157 53009 333 91837=
60390 42970 00907 10256 20193 40172 52011 333 95990=
60402 42560 12105 10238 20209 40172 52009 81200 333 81820 95990=
60419 42560 13604 10196 20147 40164 51012 81500 333 81623 95990=
60425 42960 10404 10288 20222 40138 51017 81030 333 81360 95990=
60445 42960 00205 10187 20116 39049 48551 52009 333 95990=
60452 42965 03407 10263 20237 40132 52007=
60468 42960 03305 10211 20129 39248 48549 53019 333 95990=
60475 42665 13008 10216 20142 39252 48549 51017 81530 333 81640 95990=
60490 42570 10605 10258 20212 40149 52014 81530 333 81626 95900=
60507 42960 01702 10253 20152 40138 53008 333 95990=
60511 42960 10403 10245 20120 39073 48548 53014 80002 333 81071 95990=
60525 42660 10307 10346 20160 40116 53016 81200 333 81840 95990=
60531 42970 13404 10240 20205 40150 52015 81030 333 81360 95990=
60550 41560 43106 10246 20126 38684 48548 51015 70260 84200 333 81826 83826 95990=
60555 42965 00504 10312 20152 40117 52010=
60559 42960 03102 10333 20143 40110 51013=
60566 42660 30910 10335 20084 40111 52016 83200 333 83833=
60571 42560 53605 10270 20161 39237 48549 53003 83980 333 81930 95990=
60580 42960 00506 10348 20099 40109 52015=
60581 42960 03607 10354 20162 40108 53005=
60590 42660 21403 10336 20128 40108 52010 82100 333 82840=
60607 42960 20703 10360 20084 40076 52008 82030 333 82362=
60611 42660 63306 10334 20066 40091 51012 82232 333 82846 83358=
60620 42960 10505 10380 20048 40092 52017 80002 333 81075=
60630 42660 30000 10356 20045 40087 53014 82230 333 82846=
60640 42660 50412 10368 20103 40083 52021 83830 333 83640=
60656 42958 22916 10365 20082 40079 53017 82080 333 82360=
60670 41640 51116 10253 20185 39098 48570 52045 70696 85300 333 82940 83846 95990=
60680 41650 70523 10228 20146 38678 48558 52012 79596 86930 333 83933 84840 95990=
60714 269// /2607 10260 20212 30142 40148 51010 333 59003 60007 91010 91124=
60720 269// /2903 10263 20232 30109 40142 50007 333 59004 60007 91008 91120=
60725 32558 3//// 10252 20179 39996 40159 53013 83200 333 83820=
60728 26/// /3005 10255 20174 30060 40149 51012 333 59005 60007 91010 91119=
60735 32560 30206 10275 20177 30074 40152 51019 83200 333 83823=
60745 32558 30616 10280 20192 39782 40131 51021 83200 333 58000 60007 83826 91021 91122=
60748 26/// ///06 10267 20201 39756 40152 51019 333 59003 60007 91009 91113=
60750 32560 40303 10275 20211 30111 40135 51013 84800 333 83820=
60760 25960 00918 10313 20183 30021 40118 51022 333 58003 60007 91026 91126=
60764 26/// /0710 10290 20212 30078 40127 51020 333 58005 60007 91016 91124=
60769 32560 30906 10280 20200 30132 40142 51016 82802 333 82820=
60775 269// /1006 10275 20198 39801 40136 51023 333 58002 60007 91011 91124=
61701 42460 52706 10264 20237 40145 82532 333 59001 82611 83361=
61901 463// /1216 10160 20151 39717 40230 53018 333 84/08 85/22 90710 91126 91026 555 7/098=
61902 42588 41311 10237 20190 40180 82800 333 58009 82823 83640=
61996 26/// /3018 10130 20121 30149 40184 58010 333 4//// 60007 90710 91125 555 60005=
61997 26/// ///// 11001 2//// 39898 4//// 51024 333 4//// 60007 555 60005=
61998 26/// /3230 10021 21021 39967 40004 58029 333 59104 60007 90710 91140 555 60005=
62271 46/// /0107 10321 20090 39659 40138 51012=
63450 42580 72702 10148 20132 37754 40155 86530 333 59003 86625 83358=
63658 32970 01802 10218 20143 38903 48537 80000 333 59003 555 10172 RH63/ VP16/3=
63980 42470 11414 10247 20219 40147 831// 333 59002 81817 94314 91124=
64400 42457 81804 10228 20207 30156 40175 888// 333 58006 81810 88620=
64401 42560 62204 10230 20193 39778 40149 86500 333 58000 86620=
64402 42457 62802 10216 20188 39568 40146 86500 333 58000 86613=
64450 41958 02606 10257 20187 39785 40139 70500 333 58000=
64452 42358 40000 10265 20214 39/// 40/// 84500 333 5//// 84612=
64453 42460 42804 10205 20190 39/// 48/// 84500 333 5//// 84607=
64456 42960 00000 10243 20224 39/// 40/// 333 5////=
64459 41560 10000 10240 20233 39766 40129 71300 81900 333 59005 81826 94942 95812=
64460 41460 30000 10222 20/// 39/// 40/// 71311 83900 333 5//// 83613 81930 94941 95831=
64462 42960 20000 10231 20213 39/// 40/// 82040 333 5//// 82362=
64700 42960 50000 10273 20248 39790 40125 80002 333 59010 85075=
65125 41360 71303 10262 20245 39758 40168 71799 82938 333 CHECK SIPY04 KWBC 152100 86033 32570 72320 10176 20155 30106 40203 58011 87800 333 87820=
65201 42360 72103 10252 20230 30123 40172 81508 333 55408 40000 58003 81609 86280=
65306 42560 60000 10263 20240 39807 40136 82802 333 59005 81620 85076 94922 95832=
65319 42960 50000 10260 20239 39653 40129 80002 333 59002 85076=
65330 41560 51806 10259 20224 39699 40137 71322 81902 333 58002 81930 85076 94946 95816=
65335 41560 51402 10260 20231 39919 40142 71322 81902 333 58000 81930 85076 94946 95816=
65338 42958 51802 10245 20224 3//// 4//// 80002 333 5//// 85076=
65344 42460 52006 10254 20240 30143 40154 81502 333 58002 81612 85076=
67027 32680 11010 10240 20151 30192 40213 50006 81500 333 81640=
67083 32570 10000 10113 20097 38835 48598 58005 81500 333 81620=
67095 32470 60000 10193 20182 30244 40251 58008 86800 333 85817 555 82633=
67197 32970 00818 10209 20171 30209 40219 58003=
67215 42575 21308 10236 20196 40222 82100 333 59006=
67237 42970 00806 10188 20174 40242 333 59003=
67261 42970 01607 10260 20122 40194 333 58020=
67295 42980 09902 10190 20108 39443 48603 333 59003=
67323 42480 20207 10232 20218 40205 52004 82600=
67335 42980 00305 10236 20173 40164 52004=
67341 42970 00305 10195 20134 40176 50004=
68174 46/// /0000 10165 20052 38852 48572 52008 333 10282 20165 91003=
68176 46/// /1502 10164 20060 39192 48564 52006 333 10323 20164 91002=
68182 46/// /2403 10193 20078 39415 48594 56003 333 10298 20187 91005=
68184 46/// /0000 10208 20061 39125 48592 52002 333 10265 20202 91003=
68186 46/// /3002 10192 20089 39357 48595 53005 333 10303 20180 91005=
68192 46/// /2902 10148 20094 39556 48604 51007 333 10313 20145 91003=
68242 46/// /0406 10159 21006 38786 48562 52008 333 10297 20158 91007=
68250 46/// /2204 1//// 2//// 39029 4//// 53002 333 1//// 2//// 91005=
68254 46/// /1802 10116 20024 38852 48570 52007 333 10296 20116 91003=
68263 42970 03003 10188 20019 38552 48576 52005 333 10269 20185 91005=
68268 46/// /3504 10172 20000 38942 48577 52007 333 10312 20168 91005=
68272 46/// /1102 10170 20037 39148 48583 52013 333 10310 20152 91003=
68286 46/// /2502 10114 21006 38425 48583 53003 333 10261 20110 91003=
68290 46/// /3204 10184 20084 39231 48577 52003 333 10230 20184 91006=
68296 46/// /0000 10100 20006 39863 48535 53007 333 10315 20100 91001=
68322 46/// /2004 10098 21098 39202 48546 52010 333 10297 20098 91006=
68336 46/// /3402 10094 21056 38891 48549 52012 333 10298 20094 91004=
68342 46/// ///// 10164 20014 38560 48557 53002 333 10272 20164=
68350 46/// ///// 10164 20006 38714 48562 53006 333 10286 20163=
68351 46/// /2502 10109 20012 38498 48579 52005 333 10262 20109 91003=
68352 46/// /2304 10123 20091 38839 48284 52001 333 10327 20122 91006 555 90991=
68362 46/// /1602 10109 20020 38564 48571 53001 333 10277 20109 91003=
68380 46/// /0000 10106 20017 38417 48585 53007 333 10265 20106 91002=
68400 46/// /1505 10209 20161 30102 40176 52020 333 10304 20209 91009=
68408 46/// /0904 10090 20072 30224 40233 51001 333 10160 20090 91004=
68424 46/// /2902 10093 21092 39255 48547 52007 333 10259 20081 91003=
68438 46/// /0000 10086 21125 38865 48544 52007 333 10264 20086 91001=
68442 46/// /2305 10124 21070 38695 48544 52007 333 10255 20124 91006=
68461 46/// /1702 10131 20038 38373 48563 52006 333 10251 20128 91003=
68478 46/// /1705 10137 20101 38878 48526 52012 333 10291 20136 91011=
68488 46/// /2206 10153 20128 39326 48563 52017 333 10321 20151 91010=
68512 46/// /0504 10097 21004 39073 48551 51001 333 10161 20087 91005=
68524 46/// /2203 10085 21120 39127 48557 52009 333 10218 20084 91005=
68542 46/// /2903 10101 21058 38586 48551 52007 333 10248 20094 91005=
68546 46/// /1303 10056 20001 38713 48552 53011 333 10228 20041 91006=
68572 46/// /0000 10110 20091 38467 48576 52006 333 10262 20099 91002=
68580 46/// /1504 10127 20119 39019 48570 52007 333 10256 20126 91007=
68588 46/// /2307 10173 20154 30114 48562 53012 333 10228 20172 91013=
68614 46/// /2902 10096 20086 30184 40235 53003 333 10222 20094 91004=
68618 46/// /0806 10023 21068 39103 48533 51008 333 10169 20023 91007=
68624 46/// /1603 10053 21027 38795 48543 52006 333 10178 20053 91006=
68648 46/// /1204 10055 20039 38308 48577 52007 333 10189 20022 91009=
68668 46/// /1903 10114 20101 39384 48582 53006 333 10180 20114 91004=
68674 46/// /2504 1//// 2//// 30212 4//// 52010 333 1//// 2//// 91010=
68712 46/// /1909 10098 20080 30166 40242 52008 333 10146 20095 91010=
68714 46/// /3002 10074 20050 30199 48566 52007 333 10185 20071 91003=
68722 46/// /2103 11016 21058 38598 48549 57006 333 10143 21020 91004=
68744 46/// /1005 10079 20035 39167 48555 52004 333 10195 20079 91007=
68754 46/// /3503 10069 20056 39205 48561 51006 333 10163 20069 91004=
68832 46/// /0302 10055 20016 39271 48556 51001 333 10172 20055 91003=
68842 42970 02604 10088 20080 30158 40244 57002=
68906 42698 62118 10085 20041 30180 40246 53013 86800 333 10111 20084 91028 555 20004 91024=
68916 46/// /2509 10109 20062 39964 40240 53001 333 10176 20107 91014=
68920 46/// /0102 10115 20085 30228 40241 57010 333 10174 20107 91005=
68926 46/// /0000 10077 20055 30056 40243 57006 333 10188 20075 91002=
68928 46/// /3403 10106 20080 30053 40217 58010 333 10166 20106 91004=
68994 41496 3//// 10006 21048 30099 40129 53011 72277 83500 333 10014 21015 555 20002 91012=